Time;durP1;ratioP1;P1;durP2;ratioP2;P2;SDS_P1;SDS_P2;PMS_P1;PMS_P2;Temp;Humidity;BMP_temperature;BMP_pressure;BME280_temperature;BME280_humidity;BME280_pressure;Samples;Min_cycle;Max_cycle;Signal;HPM_P1;HPM_P2
2023/10/19 00:02:15;;;;;;;20.75;13.55;;;;;;;10.04;nan;98955.56;10304715;28;20742;-73
2023/10/19 00:07:15;;;;;;;32.60;15.38;;;;;;;10.05;nan;98947.78;10305540;28;20050;-73
2023/10/19 00:12:16;;;;;;;19.55;13.57;;;;;;;10.05;nan;98936.41;10305571;28;21547;-73
2023/10/19 00:17:20;;;;;;;22.38;16.17;;;;;;;10.10;nan;98938.28;10304648;28;20041;-74
2023/10/19 00:22:21;;;;;;;26.90;16.90;;;;;;;10.07;nan;98940.84;10303760;28;20070;-73
2023/10/19 00:27:23;;;;;;;27.95;18.55;;;;;;;10.05;nan;98936.41;10303943;28;20049;-73
2023/10/19 00:32:24;;;;;;;27.65;19.85;;;;;;;10.08;nan;98932.13;10304970;28;20390;-73
2023/10/19 00:37:32;;;;;;;22.23;18.27;;;;;;;10.07;nan;98939.94;10330548;28;20038;-74
2023/10/19 00:42:32;;;;;;;22.88;17.10;;;;;;;10.07;nan;98940.84;10304965;28;20296;-73
2023/10/19 00:47:42;;;;;;;25.33;17.80;;;;;;;10.00;nan;98949.41;10300606;28;20779;-73
2023/10/19 00:52:49;;;;;;;25.40;18.00;;;;;;;10.00;nan;98957.25;10304552;28;20038;-73
2023/10/19 00:57:50;;;;;;;24.58;17.33;;;;;;;10.04;nan;98946.00;10288741;28;20046;-73
2023/10/19 01:02:52;;;;;;;28.40;16.40;;;;;;;10.08;nan;98937.38;10305875;28;20041;-73
2023/10/19 01:07:57;;;;;;;31.63;21.25;;;;;;;10.04;nan;98940.78;10338662;28;20046;-74
2023/10/19 01:12:59;;;;;;;22.13;16.10;;;;;;;10.18;nan;98946.25;10316655;28;20061;-73
2023/10/19 01:18:04;;;;;;;22.13;15.23;;;;;;;10.29;nan;98942.09;10299842;28;20111;-73
2023/10/19 01:28:10;;;;;;;25.20;19.95;;;;;;;10.20;nan;98930.59;10308891;28;20056;-73
2023/10/19 01:33:15;;;;;;;27.25;17.98;;;;;;;10.27;nan;98935.09;10318584;28;20050;-73
2023/10/19 01:38:16;;;;;;;28.60;17.85;;;;;;;10.28;nan;98927.25;10311867;28;20037;-73
2023/10/19 01:43:21;;;;;;;26.90;17.63;;;;;;;10.30;nan;98919.47;10342934;28;21788;-73
2023/10/19 01:48:33;;;;;;;21.98;14.85;;;;;;;10.31;nan;98921.22;10309487;28;20525;-74
2023/10/19 01:53:39;;;;;;;27.67;16.55;;;;;;;10.37;nan;98923.03;10312030;28;20046;-74
2023/10/19 01:58:41;;;;;;;26.27;16.10;;;;;;;10.35;nan;98917.81;10311974;28;20053;-73
2023/10/19 02:03:42;;;;;;;23.77;17.20;;;;;;;10.35;nan;98916.91;10324050;28;20655;-73
2023/10/19 02:08:56;;;;;;;23.45;15.95;;;;;;;10.38;nan;98909.13;10327440;28;20084;-74
2023/10/19 02:14:04;;;;;;;22.80;15.68;;;;;;;10.40;nan;98910.06;10342251;28;21772;-73
2023/10/19 02:19:05;;;;;;;19.35;11.02;;;;;;;10.64;nan;98900.84;10322209;28;20038;-73
2023/10/19 02:24:07;;;;;;;25.55;16.80;;;;;;;10.90;nan;98910.84;10359656;28;20125;-73
2023/10/19 02:29:09;;;;;;;15.07;9.05;;;;;;;11.29;nan;98904.41;10347664;28;20045;-74
2023/10/19 02:34:11;;;;;;;16.48;8.32;;;;;;;11.46;nan;98908.13;10361776;28;20081;-74
2023/10/19 02:39:14;;;;;;;17.38;7.15;;;;;;;11.74;nan;98905.84;10348716;28;20072;-74
2023/10/19 02:49:20;;;;;;;8.95;6.13;;;;;;;12.06;nan;98887.84;10362621;28;19949;-74
2023/10/19 02:54:22;;;;;;;10.85;4.18;;;;;;;12.35;nan;98890.75;10362076;28;20042;-74
2023/10/19 02:59:23;;;;;;;7.10;2.38;;;;;;;12.47;nan;98889.97;10346972;28;20506;-74
2023/10/19 03:04:25;;;;;;;14.95;3.20;;;;;;;12.47;nan;98874.22;10362060;28;20034;-74
2023/10/19 03:14:26;;;;;;;11.10;2.22;;;;;;;12.56;nan;98861.16;10361825;28;20041;-74
2023/10/19 03:19:27;;;;;;;9.55;3.22;;;;;;;12.57;nan;98848.94;10363592;28;20038;-73
2023/10/19 03:24:38;;;;;;;5.32;2.08;;;;;;;12.50;nan;98860.25;10361203;28;20034;-74
2023/10/19 03:29:39;;;;;;;4.15;2.10;;;;;;;12.51;nan;98849.75;10358118;28;20173;-73
2023/10/19 03:34:43;;;;;;;4.60;2.25;;;;;;;12.48;nan;98842.75;10336665;28;20088;-73
2023/10/19 03:39:46;;;;;;;7.80;2.05;;;;;;;12.48;nan;98847.13;10352926;28;20045;-73
2023/10/19 03:49:51;;;;;;;6.50;2.00;;;;;;;12.52;nan;98832.28;10363028;28;20038;-73
2023/10/19 03:54:51;;;;;;;10.70;2.45;;;;;;;12.51;nan;98823.53;10363112;28;20042;-73
2023/10/19 03:59:56;;;;;;;7.07;2.47;;;;;;;12.47;nan;98820.03;10360436;28;20490;-73
2023/10/19 04:05:01;;;;;;;4.80;2.28;;;;;;;12.48;nan;98820.88;10373259;28;20068;-73
2023/10/19 04:15:17;;;;;;;8.05;2.03;;;;;;;12.44;nan;98826.97;10361143;28;20046;-75
2023/10/19 04:25:18;;;;;;;5.88;2.47;;;;;;;12.37;nan;98827.78;10360264;28;20035;-74
2023/10/19 04:30:22;;;;;;;4.93;2.10;;;;;;;12.36;nan;98829.56;10357074;28;20450;-74
2023/10/19 04:35:22;;;;;;;11.70;2.45;;;;;;;12.27;nan;98827.72;10391197;28;20030;-74
2023/10/19 04:40:23;;;;;;;8.63;2.53;;;;;;;12.33;nan;98829.53;10359551;28;20121;-74
2023/10/19 04:45:23;;;;;;;6.10;2.55;;;;;;;12.13;nan;98832.88;10375801;28;20129;-74
2023/10/19 04:50:24;;;;;;;11.27;2.92;;;;;;;12.00;nan;98844.09;10356781;28;20065;-74
2023/10/19 04:55:24;;;;;;;13.13;2.67;;;;;;;11.98;nan;98849.28;10363111;28;20125;-75
2023/10/19 05:00:27;;;;;;;6.57;2.10;;;;;;;11.89;nan;98852.72;10359000;28;20130;-74
2023/10/19 05:05:28;;;;;;;28.92;4.72;;;;;;;11.80;nan;98850.00;10359391;28;20493;-75
2023/10/19 05:10:29;;;;;;;13.68;2.10;;;;;;;11.77;nan;98849.97;10359588;28;20081;-74
2023/10/19 05:15:29;;;;;;;31.88;5.28;;;;;;;11.79;nan;98847.34;10353318;28;20056;-74
2023/10/19 05:20:30;;;;;;;5.57;2.05;;;;;;;11.70;nan;98845.53;10366833;28;20413;-75
2023/10/19 05:25:31;;;;;;;4.95;2.05;;;;;;;11.70;nan;98846.38;10347915;28;20038;-74
2023/10/19 05:30:32;;;;;;;6.90;2.63;;;;;;;11.80;nan;98851.72;10358525;28;20046;-74
2023/10/19 05:35:40;;;;;;;11.37;3.97;;;;;;;11.84;nan;98864.00;10375367;28;20045;-75
2023/10/19 05:40:42;;;;;;;6.97;3.38;;;;;;;11.89;nan;98851.81;10355057;28;20129;-74
2023/10/19 05:45:43;;;;;;;9.75;3.00;;;;;;;11.81;nan;98854.38;10372352;28;20117;-74
2023/10/19 05:50:43;;;;;;;9.10;2.92;;;;;;;11.92;nan;98864.09;10389001;28;20030;-74
2023/10/19 05:55:45;;;;;;;8.82;4.07;;;;;;;11.97;nan;98865.03;10341272;28;20041;-75
2023/10/19 06:00:46;;;;;;;20.67;4.97;;;;;;;11.92;nan;98870.19;10337961;28;20486;-75
2023/10/19 06:05:47;;;;;;;20.23;3.55;;;;;;;11.95;nan;98866.75;10356175;28;20124;-75
2023/10/19 06:10:51;;;;;;;11.45;3.35;;;;;;;12.00;nan;98873.81;10358295;28;20048;-74
2023/10/19 06:15:52;;;;;;;9.90;3.63;;;;;;;12.06;nan;98882.59;10340990;28;20034;-74
2023/10/19 06:20:54;;;;;;;10.77;3.85;;;;;;;12.17;nan;98883.59;10357800;28;20109;-75
2023/10/19 06:25:55;;;;;;;11.48;3.88;;;;;;;12.23;nan;98886.25;10362915;28;20548;-74
2023/10/19 06:30:55;;;;;;;12.80;3.08;;;;;;;12.26;nan;98888.91;10364486;28;20057;-73
2023/10/19 06:35:56;;;;;;;12.13;4.10;;;;;;;12.32;nan;98888.09;10365147;28;20382;-74
2023/10/19 06:40:57;;;;;;;10.07;3.75;;;;;;;12.28;nan;98892.44;10360840;28;20173;-75
2023/10/19 06:45:58;;;;;;;10.55;3.13;;;;;;;12.29;nan;98898.56;10393576;28;20029;-74
2023/10/19 06:51:01;;;;;;;9.82;2.92;;;;;;;12.39;nan;98900.41;10389251;28;20121;-75
2023/10/19 06:56:04;;;;;;;8.52;3.10;;;;;;;12.46;nan;98901.31;10350252;28;20107;-74
2023/10/19 07:01:08;;;;;;;18.55;4.32;;;;;;;12.51;nan;98897.00;10349806;28;20045;-75
2023/10/19 07:06:13;;;;;;;8.15;3.78;;;;;;;12.63;nan;98907.59;10337074;28;20064;-74
2023/10/19 07:11:13;;;;;;;12.20;3.63;;;;;;;12.75;nan;98901.56;10363503;28;20064;-74
2023/10/19 07:16:14;;;;;;;7.95;3.38;;;;;;;12.92;nan;98899.03;10377082;28;20056;-74
2023/10/19 07:21:15;;;;;;;8.50;2.78;;;;;;;13.05;nan;98907.00;10357905;28;20410;-76
2023/10/19 07:26:15;;;;;;;22.75;5.30;;;;;;;13.39;nan;98909.81;10391918;28;20073;-76
2023/10/19 07:31:16;;;;;;;10.30;3.83;;;;;;;13.64;nan;98920.47;10357600;28;20149;-75
2023/10/19 07:36:18;;;;;;;7.25;3.03;;;;;;;13.68;nan;98909.09;10343274;28;20046;-76
2023/10/19 07:41:18;;;;;;;8.63;2.80;;;;;;;13.89;nan;98902.13;10355336;28;20048;-76
2023/10/19 07:46:19;;;;;;;14.25;4.20;;;;;;;14.03;nan;98894.31;10371139;28;20048;-75
2023/10/19 07:51:20;;;;;;;35.20;18.98;;;;;;;14.05;nan;98903.94;10350530;28;20125;-75
2023/10/19 07:56:21;;;;;;;9.60;5.82;;;;;;;14.04;nan;98894.28;10357713;28;20099;-76
2023/10/19 08:01:22;;;;;;;7.15;2.88;;;;;;;14.02;nan;98880.25;10357323;28;20082;-76
2023/10/19 08:06:23;;;;;;;6.90;2.28;;;;;;;14.05;nan;98874.16;10359262;28;20045;-77
2023/10/19 08:11:24;;;;;;;6.57;2.38;;;;;;;14.08;nan;98859.22;10350033;28;20604;-75
2023/10/19 08:16:27;;;;;;;8.10;2.08;;;;;;;14.09;nan;98846.97;10355218;28;20056;-76
2023/10/19 08:21:28;;;;;;;9.57;2.58;;;;;;;14.06;nan;98852.22;10372245;28;20040;-75
2023/10/19 08:26:29;;;;;;;11.90;3.08;;;;;;;14.19;nan;98843.47;10358121;28;20053;-76
2023/10/19 08:31:31;;;;;;;5.57;3.47;;;;;;;14.71;nan;98831.19;10343473;28;20123;-75
2023/10/19 08:36:31;;;;;;;5.30;2.45;;;;;;;15.38;nan;98830.97;10360100;28;20065;-76
2023/10/19 08:41:37;;;;;;;8.05;2.88;;;;;;;15.78;nan;98809.66;10346357;28;20133;-76
2023/10/19 08:46:40;;;;;;;5.88;2.47;;;;;;;16.10;nan;98783.97;10355918;28;20061;-75
2023/10/19 08:51:44;;;;;;;4.75;2.10;;;;;;;16.35;nan;98752.06;10354037;28;20069;-76
2023/10/19 08:56:47;;;;;;;5.07;2.30;;;;;;;16.24;nan;98731.94;10338684;28;20382;-76
2023/10/19 09:01:49;;;;;;;7.28;2.08;;;;;;;16.48;nan;98727.31;10326861;28;20041;-76
2023/10/19 09:06:49;;;;;;;7.22;2.40;;;;;;;16.67;nan;98735.03;10361174;28;20046;-76
2023/10/19 09:11:50;;;;;;;11.55;2.45;;;;;;;16.70;nan;98735.00;10371966;28;20042;-76
2023/10/19 09:16:57;;;;;;;9.65;3.30;;;;;;;16.53;nan;98740.44;10354279;28;20171;-77
2023/10/19 09:21:58;;;;;;;6.65;1.98;;;;;;;16.39;nan;98738.81;10349736;28;20038;-76
2023/10/19 09:26:59;;;;;;;6.68;2.13;;;;;;;16.38;nan;98749.41;10357896;28;20038;-76
2023/10/19 09:32:03;;;;;;;6.90;2.72;;;;;;;17.24;nan;98747.53;10390317;28;20478;-76
2023/10/19 09:37:03;;;;;;;7.38;3.08;;;;;;;17.70;nan;98745.13;10355454;28;20053;-76
2023/10/19 09:42:14;;;;;;;11.55;2.85;;;;;;;17.57;nan;98755.03;10351848;28;21629;-77
2023/10/19 09:47:35;;;;;;;6.63;2.47;;;;;;;17.91;nan;98758.03;10377382;28;20050;-76
2023/10/19 09:52:37;;;;;;;10.27;2.55;;;;;;;17.63;nan;98748.78;10353285;28;20125;-77
2023/10/19 09:57:42;;;;;;;11.43;2.85;;;;;;;17.53;nan;98766.56;10356325;28;20111;-77
2023/10/19 10:02:45;;;;;;;6.38;1.92;;;;;;;17.71;nan;98763.63;10354572;28;20042;-78
2023/10/19 10:07:46;;;;;;;11.77;3.00;;;;;;;17.70;nan;98759.25;10353851;28;20486;-76
2023/10/19 10:12:46;;;;;;;12.35;2.45;;;;;;;17.58;nan;98770.00;10364582;28;20152;-77
2023/10/19 10:17:49;;;;;;;6.50;2.05;;;;;;;17.71;nan;98775.97;10360871;28;20087;-78
2023/10/19 10:23:32;;;;;;;12.90;2.53;;;;;;;18.08;nan;98770.13;10367819;28;20045;-77
2023/10/19 10:28:32;;;;;;;8.73;3.65;;;;;;;18.91;nan;98769.53;10365949;28;20042;-77
2023/10/19 10:33:40;;;;;;;11.40;2.65;;;;;;;20.44;nan;98767.84;10355633;28;20034;-77
2023/10/19 10:38:41;;;;;;;9.70;2.72;;;;;;;23.18;nan;98835.72;10349888;28;20416;-77
2023/10/19 10:43:55;;;;;;;6.23;2.17;;;;;;;24.45;nan;98895.91;10343100;28;20042;-77
2023/10/19 10:48:55;;;;;;;10.20;2.72;;;;;;;25.41;nan;98913.28;10331111;28;20406;-77
2023/10/19 10:53:57;;;;;;;8.17;2.33;;;;;;;23.50;nan;98909.34;10311518;28;20053;-77
2023/10/19 10:58:57;;;;;;;8.15;2.03;;;;;;;20.63;nan;98877.19;10327483;28;20061;-77
2023/10/19 11:04:08;;;;;;;12.23;3.00;;;;;;;19.28;nan;98816.53;10384718;28;20522;-78
2023/10/19 11:09:10;;;;;;;9.02;2.55;;;;;;;18.82;nan;98796.22;10344194;28;20502;-77
2023/10/19 11:14:14;;;;;;;12.07;3.53;;;;;;;18.82;nan;98790.91;10371015;28;20052;-77
2023/10/19 11:19:15;;;;;;;13.65;2.80;;;;;;;18.81;nan;98775.91;10354263;28;20092;-76
2023/10/19 11:24:24;;;;;;;10.57;2.88;;;;;;;18.92;nan;98776.56;10368100;28;20193;-77
2023/10/19 11:29:25;;;;;;;8.32;2.47;;;;;;;18.51;nan;98787.06;10343401;28;20053;-76
2023/10/19 11:34:26;;;;;;;7.38;2.65;;;;;;;18.18;nan;98779.69;10383233;28;20125;-77
2023/10/19 11:39:27;;;;;;;12.00;2.63;;;;;;;17.83;nan;98767.00;10360220;28;20038;-77
2023/10/19 11:44:28;;;;;;;16.90;3.50;;;;;;;17.78;nan;98747.69;10336267;28;20591;-76
2023/10/19 11:49:29;;;;;;;9.30;2.92;;;;;;;17.87;nan;98742.25;10350442;28;20057;-77
2023/10/19 11:54:31;;;;;;;8.35;2.60;;;;;;;17.94;nan;98732.41;10334331;28;20042;-76
2023/10/19 11:59:31;;;;;;;14.73;2.17;;;;;;;17.86;nan;98738.69;10332946;28;20049;-77
2023/10/19 12:04:35;;;;;;;5.18;1.63;;;;;;;17.70;nan;98727.50;10356748;28;20168;-78
2023/10/19 12:09:36;;;;;;;12.10;3.70;;;;;;;17.48;nan;98719.00;10352328;28;20046;-77
2023/10/19 12:14:37;;;;;;;11.82;2.92;;;;;;;17.51;nan;98712.81;10359132;28;20121;-78
2023/10/19 12:19:37;;;;;;;6.75;2.22;;;;;;;17.48;nan;98708.44;10375267;28;20045;-77
2023/10/19 12:24:38;;;;;;;10.80;3.15;;;;;;;17.45;nan;98716.41;10356848;28;20867;-77
2023/10/19 12:29:39;;;;;;;6.75;2.45;;;;;;;17.40;nan;98715.59;10372818;28;20042;-77
2023/10/19 12:34:44;;;;;;;8.02;2.58;;;;;;;17.11;nan;98707.22;10371163;28;20164;-77
2023/10/19 12:39:48;;;;;;;7.88;2.17;;;;;;;16.96;nan;98712.66;10374636;28;20406;-77
2023/10/19 12:44:49;;;;;;;10.60;3.47;;;;;;;16.84;nan;98705.75;10357935;28;20057;-77
2023/10/19 12:49:50;;;;;;;8.32;2.05;;;;;;;16.89;nan;98703.94;10339560;28;20129;-77
2023/10/19 12:54:58;;;;;;;7.80;2.47;;;;;;;16.96;nan;98688.88;10353500;28;20041;-77
2023/10/19 13:05:20;;;;;;;9.57;3.70;;;;;;;16.79;nan;98689.09;10367006;28;20053;-77
2023/10/19 13:10:20;;;;;;;7.32;2.72;;;;;;;16.76;nan;98692.66;10357748;28;20164;-78
2023/10/19 13:15:21;;;;;;;9.65;3.90;;;;;;;16.60;nan;98686.66;10333472;28;20043;-76
2023/10/19 13:20:23;;;;;;;7.70;2.28;;;;;;;16.54;nan;98681.47;10336729;28;20118;-77
2023/10/19 13:25:38;;;;;;;12.32;3.15;;;;;;;16.45;nan;98674.53;10361153;28;20586;-77
2023/10/19 13:30:45;;;;;;;10.48;2.80;;;;;;;16.28;nan;98672.06;10337721;28;20080;-77
2023/10/19 13:35:45;;;;;;;12.38;3.00;;;;;;;16.08;nan;98677.56;10378070;28;20490;-77
2023/10/19 13:40:46;;;;;;;9.95;2.75;;;;;;;15.76;nan;98674.28;10366227;28;20042;-77
2023/10/19 13:45:47;;;;;;;10.82;4.25;;;;;;;15.58;nan;98696.41;10355893;28;20066;-76
2023/10/19 13:50:48;;;;;;;10.38;2.47;;;;;;;15.44;nan;98708.81;10353378;28;20045;-75
2023/10/19 13:55:48;;;;;;;11.60;3.53;;;;;;;15.42;nan;98708.81;10366927;28;20040;-75
2023/10/19 14:00:49;;;;;;;12.85;4.75;;;;;;;15.34;nan;98714.16;10367388;28;20041;-75
2023/10/19 14:05:50;;;;;;;15.50;3.83;;;;;;;15.29;nan;98709.78;10401080;28;20482;-75
2023/10/19 14:10:50;;;;;;;13.70;5.60;;;;;;;15.21;nan;98697.53;10365479;28;20826;-75
2023/10/19 14:15:51;;;;;;;12.23;5.47;;;;;;;15.24;nan;98679.06;10368635;28;20080;-75
2023/10/19 14:20:51;;;;;;;8.98;4.13;;;;;;;15.36;nan;98650.88;10369317;28;20063;-75
2023/10/19 14:25:52;;;;;;;11.23;4.93;;;;;;;15.37;nan;98648.25;10368904;28;20494;-75
2023/10/19 14:30:53;;;;;;;13.30;6.17;;;;;;;15.40;nan;98634.16;10365873;28;20049;-75
2023/10/19 14:35:54;;;;;;;8.18;4.00;;;;;;;15.38;nan;98618.38;10331860;28;20148;-74
2023/10/19 14:40:55;;;;;;;9.00;4.38;;;;;;;15.48;nan;98600.69;10379954;28;20034;-75
2023/10/19 14:45:56;;;;;;;15.20;4.07;;;;;;;16.20;nan;98581.56;10389067;28;20053;-75
2023/10/19 14:50:57;;;;;;;10.90;4.13;;;;;;;16.14;nan;98561.41;10352902;28;20103;-75
2023/10/19 14:55:58;;;;;;;16.67;3.55;;;;;;;15.99;nan;98563.31;10360310;28;20037;-75
2023/10/19 15:00:58;;;;;;;7.13;2.72;;;;;;;16.02;nan;98569.47;10333779;28;20203;-76
2023/10/19 15:05:59;;;;;;;11.38;3.25;;;;;;;16.13;nan;98554.38;10351771;28;20044;-75
2023/10/19 15:10:59;;;;;;;10.65;3.22;;;;;;;15.93;nan;98554.59;10340078;28;20092;-75
2023/10/19 15:16:08;;;;;;;7.75;3.20;;;;;;;15.76;nan;98554.75;10357044;28;20038;-75
2023/10/19 15:21:09;;;;;;;12.18;2.75;;;;;;;15.63;nan;98556.63;10356336;28;20038;-75
2023/10/19 15:26:16;;;;;;;5.18;3.67;;;;;;;15.56;nan;98559.31;10341140;28;20042;-76
2023/10/19 15:31:17;;;;;;;9.23;3.40;;;;;;;15.46;nan;98548.91;10356064;28;20117;-75
2023/10/19 15:36:21;;;;;;;10.07;3.20;;;;;;;15.49;nan;98551.50;10352402;28;20042;-75
2023/10/19 15:41:21;;;;;;;12.90;3.40;;;;;;;15.50;nan;98538.28;10361190;28;20409;-76
2023/10/19 15:46:24;;;;;;;14.88;5.22;;;;;;;15.21;nan;98530.66;10323339;28;20035;-75
2023/10/19 15:51:25;;;;;;;8.30;3.20;;;;;;;14.89;nan;98530.03;10348622;28;20405;-76
2023/10/19 15:56:28;;;;;;;8.93;5.28;;;;;;;14.61;nan;98539.84;10373964;28;20071;-76
2023/10/19 16:01:30;;;;;;;16.15;6.07;;;;;;;14.36;nan;98553.16;10356587;28;20157;-76
2023/10/19 16:06:30;;;;;;;10.88;3.78;;;;;;;14.20;nan;98554.94;10373167;28;20041;-75
2023/10/19 16:11:31;;;;;;;12.43;3.10;;;;;;;13.99;nan;98566.44;10359225;28;20461;-75
2023/10/19 16:16:31;;;;;;;8.98;4.38;;;;;;;13.79;nan;98567.38;10355133;28;20125;-75
2023/10/19 16:21:32;;;;;;;7.03;4.07;;;;;;;13.72;nan;98578.78;10357755;28;20132;-75
2023/10/19 16:26:32;;;;;;;8.15;3.92;;;;;;;13.63;nan;98569.13;10369538;28;20236;-76
2023/10/19 16:31:34;;;;;;;10.15;4.28;;;;;;;13.52;nan;98569.16;10356205;28;20045;-76
2023/10/19 16:36:34;;;;;;;9.80;4.22;;;;;;;13.42;nan;98576.16;10330496;28;20050;-75
2023/10/19 16:41:35;;;;;;;8.60;4.43;;;;;;;13.33;nan;98584.91;10361499;28;20129;-76
2023/10/19 16:46:36;;;;;;;12.50;5.38;;;;;;;13.40;nan;98579.66;10356373;28;20041;-76
2023/10/19 16:51:40;;;;;;;10.15;4.68;;;;;;;13.22;nan;98574.38;10373045;28;20129;-75
2023/10/19 16:56:46;;;;;;;7.95;4.32;;;;;;;13.10;nan;98565.66;10323068;28;20371;-75
2023/10/19 17:01:47;;;;;;;11.50;6.88;;;;;;;12.93;nan;98553.38;10335967;28;20037;-75
2023/10/19 17:06:48;;;;;;;13.85;4.40;;;;;;;12.78;nan;98541.09;10369483;28;20120;-75
2023/10/19 17:11:49;;;;;;;10.30;4.95;;;;;;;12.73;nan;98541.09;10352102;28;20368;-74
2023/10/19 17:16:50;;;;;;;11.77;4.33;;;;;;;12.66;nan;98536.72;10318405;28;20042;-74
2023/10/19 17:21:50;;;;;;;9.60;5.85;;;;;;;12.63;nan;98527.06;10349850;28;20614;-75
2023/10/19 17:26:51;;;;;;;15.23;6.55;;;;;;;12.55;nan;98520.06;10372994;28;20539;-75
2023/10/19 17:31:51;;;;;;;11.85;7.22;;;;;;;12.52;nan;98526.19;10338210;28;20046;-75
2023/10/19 17:36:53;;;;;;;46.88;10.38;;;;;;;12.47;nan;98533.16;10342143;28;20037;-75
2023/10/19 17:41:53;;;;;;;20.43;8.27;;;;;;;12.56;nan;98545.44;10358416;28;20493;-75
2023/10/19 17:46:54;;;;;;;15.02;10.05;;;;;;;12.48;nan;98542.78;10355440;28;20077;-75
2023/10/19 17:51:55;;;;;;;21.42;9.80;;;;;;;12.56;nan;98527.06;10356599;28;20038;-75
2023/10/19 17:56:56;;;;;;;14.53;8.83;;;;;;;12.44;nan;98514.78;10354066;28;20050;-75
2023/10/19 18:01:57;;;;;;;15.15;11.93;;;;;;;12.44;nan;98515.69;10350638;28;20042;-75
2023/10/19 18:07:01;;;;;;;12.90;7.72;;;;;;;12.40;nan;98513.94;10296797;28;20047;-75
2023/10/19 18:12:02;;;;;;;13.93;8.13;;;;;;;12.33;nan;98492.03;10346276;28;20042;-75
2023/10/19 18:17:09;;;;;;;16.10;9.98;;;;;;;12.29;nan;98489.41;10383719;28;20490;-75
2023/10/19 18:22:09;;;;;;;25.70;10.00;;;;;;;12.19;nan;98478.00;10347363;28;20076;-75
2023/10/19 18:27:10;;;;;;;15.13;8.88;;;;;;;12.02;nan;98486.69;10361544;28;20121;-75
2023/10/19 18:32:11;;;;;;;21.20;9.88;;;;;;;11.82;nan;98481.34;10351238;28;20124;-75
2023/10/19 18:37:15;;;;;;;217.73;32.05;;;;;;;11.69;nan;98476.94;10361283;28;20038;-75
2023/10/19 18:42:16;;;;;;;88.40;20.50;;;;;;;11.51;nan;98470.72;10363240;28;20113;-75
2023/10/19 18:47:17;;;;;;;111.72;16.17;;;;;;;11.49;nan;98463.72;10360697;28;20077;-75
2023/10/19 18:52:18;;;;;;;289.55;40.35;;;;;;;11.41;nan;98442.72;10356227;28;20496;-75
2023/10/19 18:57:19;;;;;;;11.85;6.75;;;;;;;11.33;nan;98431.34;10360020;28;20128;-75
2023/10/19 19:02:19;;;;;;;194.98;29.55;;;;;;;11.25;nan;98423.44;10364066;28;20183;-75
2023/10/19 19:07:21;;;;;;;50.85;12.88;;;;;;;11.29;nan;98410.38;10360013;28;20096;-75
2023/10/19 19:12:22;;;;;;;18.50;10.18;;;;;;;11.36;nan;98416.50;10360068;28;20050;-75
2023/10/19 19:17:27;;;;;;;188.38;30.42;;;;;;;11.29;nan;98409.47;10358648;28;20038;-76
2023/10/19 19:22:29;;;;;;;79.03;15.02;;;;;;;11.19;nan;98424.28;10370359;28;20045;-75
2023/10/19 19:27:29;;;;;;;36.58;9.57;;;;;;;11.16;nan;98417.28;10354141;28;20494;-75
2023/10/19 19:32:33;;;;;;;15.13;10.50;;;;;;;11.23;nan;98410.34;10357916;28;20044;-75
2023/10/19 19:37:35;;;;;;;37.35;10.63;;;;;;;11.16;nan;98421.66;10368822;28;20064;-75
2023/10/19 19:42:36;;;;;;;21.83;12.13;;;;;;;11.42;nan;98399.97;10360723;28;20042;-74
2023/10/19 19:47:38;;;;;;;57.85;17.20;;;;;;;11.71;nan;98405.31;10353416;28;21516;-75
2023/10/19 19:52:39;;;;;;;21.75;10.07;;;;;;;11.61;nan;98408.75;10342720;28;20042;-75
2023/10/19 19:57:40;;;;;;;27.33;17.13;;;;;;;11.59;nan;98416.63;10344872;28;20037;-74
2023/10/19 20:02:43;;;;;;;42.03;17.80;;;;;;;11.82;nan;98422.81;10351633;28;20076;-75
2023/10/19 20:07:44;;;;;;;93.32;21.70;;;;;;;12.00;nan;98419.41;10376897;28;20049;-75
2023/10/19 20:12:45;;;;;;;22.47;15.83;;;;;;;12.01;nan;98415.94;10323327;28;20037;-75
2023/10/19 20:17:46;;;;;;;29.05;17.92;;;;;;;11.95;nan;98398.38;10343662;28;20121;-74
2023/10/19 20:22:46;;;;;;;49.85;18.42;;;;;;;12.18;nan;98389.72;10350403;28;20088;-75
2023/10/19 20:27:47;;;;;;;51.72;15.15;;;;;;;12.09;nan;98377.50;10331490;28;20089;-75
2023/10/19 20:32:48;;;;;;;29.70;16.77;;;;;;;12.16;nan;98360.91;10345122;28;20141;-75
2023/10/19 20:37:48;;;;;;;130.68;29.05;;;;;;;12.11;nan;98359.13;10374851;28;20053;-75
2023/10/19 20:42:53;;;;;;;21.45;13.40;;;;;;;11.95;nan;98348.59;10346945;28;20359;-74
2023/10/19 20:47:57;;;;;;;35.88;14.88;;;;;;;11.95;nan;98330.25;10381177;28;20057;-75
2023/10/19 20:52:58;;;;;;;24.90;15.13;;;;;;;11.82;nan;98326.75;10344541;28;20049;-74
2023/10/19 20:57:59;;;;;;;37.22;14.98;;;;;;;11.84;nan;98318.88;10343470;28;20041;-74
2023/10/19 21:03:01;;;;;;;30.33;14.87;;;;;;;11.67;nan;98303.97;10340887;28;20041;-74
2023/10/19 21:08:03;;;;;;;25.90;14.02;;;;;;;11.52;nan;98290.84;10358128;28;20661;-75
2023/10/19 21:13:04;;;;;;;26.10;15.30;;;;;;;11.51;nan;98286.47;10323124;28;20033;-74
2023/10/19 21:18:07;;;;;;;47.20;17.45;;;;;;;11.53;nan;98280.41;10356124;28;20065;-73
2023/10/19 21:23:08;;;;;;;39.80;13.70;;;;;;;11.43;nan;98269.00;10328679;28;20442;-75
2023/10/19 21:28:08;;;;;;;26.77;15.85;;;;;;;11.61;nan;98246.34;10350558;28;20049;-75
2023/10/19 21:33:09;;;;;;;82.22;20.60;;;;;;;11.68;nan;98252.47;10356435;28;20117;-76
2023/10/19 21:38:13;;;;;;;39.67;15.43;;;;;;;11.69;nan;98255.09;10353334;28;20128;-76
2023/10/19 21:43:13;;;;;;;23.65;13.82;;;;;;;11.48;nan;98258.56;10355741;28;20092;-75
2023/10/19 21:48:14;;;;;;;38.25;18.20;;;;;;;11.58;nan;98228.00;10341236;28;20062;-75
2023/10/19 21:53:15;;;;;;;29.15;17.90;;;;;;;11.61;nan;98230.63;10368895;28;20074;-76
2023/10/19 21:58:15;;;;;;;43.63;20.63;;;;;;;11.70;nan;98222.78;10382998;28;20486;-76
2023/10/19 22:03:15;;;;;;;32.35;20.27;;;;;;;11.78;nan;98235.00;10365586;28;20133;-75
2023/10/19 22:08:16;;;;;;;47.63;27.30;;;;;;;11.94;nan;98221.03;10364186;28;20042;-76
2023/10/19 22:13:16;;;;;;;46.92;27.40;;;;;;;12.02;nan;98205.34;10343165;28;20049;-75
2023/10/19 22:18:18;;;;;;;52.47;28.30;;;;;;;12.07;nan;98193.09;10356044;28;20111;-76
2023/10/19 22:23:19;;;;;;;55.75;29.35;;;;;;;12.18;nan;98203.56;10357959;28;20038;-75
2023/10/19 22:28:19;;;;;;;46.03;27.80;;;;;;;12.23;nan;98204.44;10365459;28;20128;-76
2023/10/19 22:33:20;;;;;;;51.60;29.35;;;;;;;12.29;nan;98193.06;10362438;28;20108;-75
2023/10/19 22:38:21;;;;;;;46.25;25.83;;;;;;;12.34;nan;98199.19;10362775;28;20089;-76
2023/10/19 22:43:22;;;;;;;44.58;28.58;;;;;;;12.35;nan;98193.06;10381103;28;20177;-75
2023/10/19 22:48:22;;;;;;;37.88;22.98;;;;;;;12.41;nan;98179.91;10363177;28;20045;-75
2023/10/19 22:53:25;;;;;;;39.50;25.90;;;;;;;12.45;nan;98170.28;10337566;28;20451;-75
2023/10/19 22:58:26;;;;;;;50.75;30.98;;;;;;;12.44;nan;98160.66;10375471;28;20038;-75
2023/10/19 23:03:26;;;;;;;39.22;24.48;;;;;;;12.45;nan;98162.41;10363952;28;20430;-75
2023/10/19 23:08:28;;;;;;;44.70;24.58;;;;;;;12.46;nan;98159.78;10362113;28;20066;-75
2023/10/19 23:13:31;;;;;;;47.58;26.67;;;;;;;12.45;nan;98170.28;10338563;28;20045;-75
2023/10/19 23:18:35;;;;;;;37.88;24.70;;;;;;;12.50;nan;98176.38;10345832;28;20516;-75
2023/10/19 23:23:36;;;;;;;37.85;23.75;;;;;;;12.50;nan;98179.00;10364248;28;20041;-75
2023/10/19 23:28:36;;;;;;;34.97;21.77;;;;;;;12.59;nan;98167.63;10359331;28;20045;-75
2023/10/19 23:33:37;;;;;;;36.30;23.40;;;;;;;12.59;nan;98152.75;10376459;28;20040;-75
2023/10/19 23:38:37;;;;;;;31.35;21.42;;;;;;;12.54;nan;98144.00;10362704;28;20068;-75
2023/10/19 23:43:38;;;;;;;45.92;23.88;;;;;;;12.50;nan;98138.81;10362507;28;20105;-76
2023/10/19 23:48:43;;;;;;;39.38;24.95;;;;;;;12.45;nan;98131.81;10375336;28;20553;-75
2023/10/19 23:53:45;;;;;;;37.13;24.02;;;;;;;12.44;nan;98121.31;10344847;28;20041;-75
2023/10/19 23:58:45;;;;;;;40.22;25.02;;;;;;;12.52;nan;98116.06;10377286;28;20038;-75
